createdAt,value
2018-07-20T00:00:35.003Z,0.00
2018-07-20T00:01:34.991Z,0.00
2018-07-20T00:02:34.957Z,0.00
2018-07-20T00:03:34.870Z,0.00
2018-07-20T00:04:34.824Z,0.00
2018-07-20T00:05:34.780Z,0.00
2018-07-20T00:06:34.740Z,0.00
2018-07-20T00:07:34.732Z,0.00
2018-07-20T00:08:34.645Z,0.00
2018-07-20T00:09:34.599Z,0.00
2018-07-20T00:10:34.552Z,0.00
2018-07-20T00:11:34.511Z,0.00
2018-07-20T00:12:34.496Z,0.00
2018-07-20T00:13:34.423Z,0.00
2018-07-20T00:14:34.371Z,0.00
2018-07-20T00:15:34.359Z,0.00
2018-07-20T00:16:34.286Z,0.00
2018-07-20T00:17:34.243Z,0.00
2018-07-20T00:18:34.191Z,0.00
2018-07-20T00:19:34.146Z,0.00
2018-07-20T00:20:34.134Z,0.00
2018-07-20T00:21:34.056Z,0.00
2018-07-20T00:22:34.011Z,0.00
2018-07-20T00:23:33.963Z,0.00
2018-07-20T00:24:33.955Z,0.00
2018-07-20T00:25:33.877Z,0.00
2018-07-20T00:26:33.828Z,0.00
2018-07-20T00:27:33.784Z,0.00
2018-07-20T00:28:33.743Z,0.00
2018-07-20T00:29:33.738Z,0.00
2018-07-20T00:30:33.655Z,0.00
2018-07-20T00:31:33.605Z,0.00
2018-07-20T00:32:33.562Z,0.00
2018-07-20T00:33:33.510Z,0.00
2018-07-20T00:34:33.496Z,0.00
2018-07-20T00:35:33.420Z,0.00
2018-07-20T00:36:33.409Z,0.00
2018-07-20T00:37:33.331Z,0.00
2018-07-20T00:38:33.284Z,0.00
2018-07-20T00:39:33.238Z,0.00
2018-07-20T00:40:33.227Z,0.00
2018-07-20T00:41:33.156Z,0.00
2018-07-20T00:42:33.108Z,0.00
2018-07-20T00:43:33.057Z,0.00
2018-07-20T00:44:33.011Z,0.00
2018-07-20T00:45:33.013Z,0.00
2018-07-20T00:46:32.920Z,0.00
2018-07-20T00:47:32.880Z,0.00
2018-07-20T00:48:32.829Z,0.00
2018-07-20T00:49:32.780Z,0.00
2018-07-20T00:50:32.768Z,0.00
2018-07-20T00:51:32.688Z,0.00
2018-07-20T00:52:32.672Z,0.00
2018-07-20T00:53:32.597Z,0.00
2018-07-20T00:54:32.551Z,0.00
2018-07-20T00:55:32.506Z,0.00
2018-07-20T00:56:32.458Z,0.00
2018-07-20T00:57:32.446Z,0.00
2018-07-20T00:58:32.401Z,0.00
2018-07-20T00:59:32.325Z,0.00
2018-07-20T01:00:32.278Z,0.00
2018-07-20T01:01:32.233Z,0.00
2018-07-20T01:02:32.182Z,0.00
2018-07-20T01:03:32.166Z,0.00
2018-07-20T01:04:32.095Z,0.00
2018-07-20T01:05:32.059Z,0.00
2018-07-20T01:06:31.999Z,0.00
2018-07-20T01:07:31.997Z,0.00
2018-07-20T01:08:31.908Z,0.00
2018-07-20T01:09:31.862Z,0.00
2018-07-20T01:10:31.815Z,0.00
2018-07-20T01:11:31.773Z,0.00
2018-07-20T01:12:31.754Z,0.00
2018-07-20T01:13:31.677Z,0.00
2018-07-20T01:14:31.629Z,0.00
2018-07-20T01:15:31.623Z,0.00
2018-07-20T01:16:31.536Z,0.00
2018-07-20T01:17:31.493Z,0.00
2018-07-20T01:18:31.446Z,0.00
2018-07-20T01:19:31.398Z,0.00
2018-07-20T01:20:31.386Z,0.00
2018-07-20T01:21:31.313Z,0.00
2018-07-20T01:22:31.260Z,0.00
2018-07-20T01:23:31.215Z,0.00
2018-07-20T01:24:31.166Z,0.00
2018-07-20T01:25:31.158Z,0.00
2018-07-20T01:26:31.075Z,0.00
2018-07-20T01:27:31.060Z,0.00
2018-07-20T01:28:30.982Z,0.00
2018-07-20T01:29:30.935Z,0.00
2018-07-20T01:30:30.892Z,0.00
2018-07-20T01:31:30.881Z,0.00
2018-07-20T01:32:30.797Z,0.00
2018-07-20T01:33:30.750Z,0.00
2018-07-20T01:34:30.706Z,0.00
2018-07-20T01:35:30.656Z,0.00
2018-07-20T01:36:30.652Z,0.00
2018-07-20T01:37:30.566Z,0.00
2018-07-20T01:38:30.518Z,0.00
2018-07-20T01:39:30.474Z,0.00
2018-07-20T01:40:30.425Z,0.00
2018-07-20T01:41:30.411Z,0.00
2018-07-20T01:42:30.330Z,0.00
2018-07-20T01:43:30.288Z,0.00
2018-07-20T01:44:30.240Z,0.00
2018-07-20T01:45:30.225Z,0.00
2018-07-20T01:46:30.147Z,0.00
2018-07-20T01:47:30.102Z,0.00
2018-07-20T01:48:30.054Z,0.00
2018-07-20T01:49:30.002Z,0.00
2018-07-20T01:50:29.984Z,0.00
2018-07-20T01:51:29.914Z,0.00
2018-07-20T01:52:29.868Z,0.00
2018-07-20T01:53:29.823Z,0.00
2018-07-20T01:54:29.769Z,0.00
2018-07-20T01:55:29.766Z,0.00
2018-07-20T01:56:29.678Z,0.00
2018-07-20T01:57:29.632Z,0.00
2018-07-20T01:58:29.628Z,0.00
2018-07-20T01:59:29.542Z,0.00
2018-07-20T02:00:29.495Z,0.00
2018-07-20T02:01:29.446Z,0.00
2018-07-20T02:02:29.398Z,0.00
2018-07-20T02:03:29.388Z,0.00
2018-07-20T02:04:29.305Z,0.00
2018-07-20T02:05:29.258Z,0.00
2018-07-20T02:06:29.210Z,0.00
2018-07-20T02:07:29.166Z,0.00
2018-07-20T02:08:29.143Z,0.00
2018-07-20T02:09:29.101Z,0.00
2018-07-20T02:10:29.024Z,0.00
2018-07-20T02:11:28.980Z,0.00
2018-07-20T02:12:28.931Z,0.00
2018-07-20T02:13:28.914Z,0.00
2018-07-20T02:14:28.836Z,0.00
2018-07-20T02:15:28.790Z,0.00
2018-07-20T02:16:28.775Z,0.00
2018-07-20T02:17:28.697Z,0.00
2018-07-20T02:18:28.692Z,0.00
2018-07-20T02:19:28.602Z,0.00
2018-07-20T02:20:28.558Z,0.00
2018-07-20T02:21:28.513Z,0.00
2018-07-20T02:22:28.475Z,0.00
2018-07-20T02:23:28.443Z,0.00
2018-07-20T02:24:28.367Z,0.00
2018-07-20T02:25:28.398Z,0.00
2018-07-20T02:26:28.275Z,0.00
2018-07-20T02:27:28.232Z,0.00
2018-07-20T02:28:28.178Z,0.00
2018-07-20T02:29:28.170Z,0.00
2018-07-20T02:30:28.118Z,0.00
2018-07-20T02:31:28.037Z,0.00
2018-07-20T02:32:27.991Z,0.00
2018-07-20T02:33:27.945Z,0.00
2018-07-20T02:34:27.947Z,0.00
2018-07-20T02:35:27.850Z,0.00
2018-07-20T02:36:27.802Z,0.00
2018-07-20T02:37:27.763Z,0.00
2018-07-20T02:38:27.714Z,0.00
2018-07-20T02:39:27.691Z,0.00
2018-07-20T02:40:27.614Z,0.00
2018-07-20T02:41:27.600Z,0.00
2018-07-20T02:42:27.520Z,0.00
2018-07-20T02:43:27.472Z,0.00
2018-07-20T02:44:27.428Z,0.00
2018-07-20T02:45:27.380Z,0.00
2018-07-20T02:46:27.363Z,0.00
2018-07-20T02:47:27.293Z,0.00
2018-07-20T02:48:27.236Z,0.00
2018-07-20T02:49:27.192Z,0.00
2018-07-20T02:50:27.176Z,0.00
2018-07-20T02:51:27.095Z,0.00
2018-07-20T02:52:27.049Z,0.00
2018-07-20T02:53:27.002Z,0.00
2018-07-20T02:54:26.958Z,0.00
2018-07-20T02:55:26.941Z,0.00
2018-07-20T02:56:26.975Z,0.00
2018-07-20T02:57:26.841Z,0.00
2018-07-20T02:58:26.764Z,0.00
2018-07-20T02:59:26.721Z,0.00
2018-07-20T03:00:26.672Z,4.00
2018-07-20T03:01:26.674Z,4.00
2018-07-20T03:02:26.576Z,0.00
2018-07-20T03:03:26.540Z,4.00
2018-07-20T03:04:26.486Z,4.00
2018-07-20T03:05:26.435Z,0.00
2018-07-20T03:06:26.420Z,4.00
2018-07-20T03:07:26.341Z,4.00
2018-07-20T03:08:26.296Z,4.00
2018-07-20T03:09:26.248Z,4.00
2018-07-20T03:10:26.231Z,8.00
2018-07-20T03:11:26.152Z,8.00
2018-07-20T03:12:26.140Z,8.00
2018-07-20T03:13:26.071Z,8.00
2018-07-20T03:14:26.042Z,12.00
2018-07-20T03:15:25.965Z,12.00
2018-07-20T03:16:25.921Z,16.00
2018-07-20T03:17:25.903Z,16.00
2018-07-20T03:18:25.825Z,16.00
2018-07-20T03:19:25.776Z,24.00
2018-07-20T03:20:25.731Z,24.00
2018-07-20T03:21:25.680Z,28.00
2018-07-20T03:22:25.673Z,32.00
2018-07-20T03:23:25.585Z,36.00
2018-07-20T03:24:25.540Z,36.00
2018-07-20T03:25:25.502Z,44.00
2018-07-20T03:26:25.448Z,48.00
2018-07-20T03:27:25.439Z,52.00
2018-07-20T03:28:25.355Z,56.00
2018-07-20T03:29:25.331Z,60.00
2018-07-20T03:30:25.255Z,68.00
2018-07-20T03:31:25.211Z,72.00
2018-07-20T03:32:25.192Z,76.00
2018-07-20T03:33:25.120Z,80.00
2018-07-20T03:34:25.066Z,88.00
2018-07-20T03:35:25.019Z,88.00
2018-07-20T03:36:24.971Z,96.00
2018-07-20T03:37:24.949Z,100.00
2018-07-20T03:38:24.877Z,108.00
2018-07-20T03:39:24.864Z,116.00
2018-07-20T03:40:24.787Z,128.00
2018-07-20T03:41:24.738Z,136.00
2018-07-20T03:42:24.687Z,144.00
2018-07-20T03:43:24.647Z,156.00
2018-07-20T03:44:24.625Z,168.00
2018-07-20T03:45:24.578Z,180.00
2018-07-20T03:46:24.497Z,192.00
2018-07-20T03:47:24.450Z,204.00
2018-07-20T03:48:24.399Z,216.00
2018-07-20T03:49:24.355Z,232.00
2018-07-20T03:50:24.350Z,248.00
2018-07-20T03:51:24.260Z,260.00
2018-07-20T03:52:24.212Z,276.00
2018-07-20T03:53:24.174Z,288.00
2018-07-20T03:54:24.122Z,308.00
2018-07-20T03:55:24.116Z,320.00
2018-07-20T03:56:24.023Z,340.00
2018-07-20T03:57:23.974Z,356.00
2018-07-20T03:58:23.925Z,372.00
2018-07-20T03:59:23.882Z,392.00
2018-07-20T04:00:23.867Z,404.00
2018-07-20T04:01:23.785Z,424.00
2018-07-20T04:02:23.777Z,444.00
2018-07-20T04:03:23.694Z,460.00
2018-07-20T04:04:23.646Z,480.00
2018-07-20T04:05:23.594Z,500.00
2018-07-20T04:06:23.579Z,516.00
2018-07-20T04:07:23.500Z,532.00
2018-07-20T04:08:23.455Z,552.00
2018-07-20T04:09:23.404Z,568.00
2018-07-20T04:10:23.462Z,584.00
2018-07-20T04:11:23.343Z,604.00
2018-07-20T04:12:23.296Z,620.00
2018-07-20T04:13:23.216Z,636.00
2018-07-20T04:14:23.169Z,656.00
2018-07-20T04:15:23.126Z,672.00
2018-07-20T04:16:23.077Z,688.00
2018-07-20T04:17:23.062Z,704.00
2018-07-20T04:18:22.977Z,720.00
2018-07-20T04:19:22.929Z,736.00
2018-07-20T04:20:22.886Z,752.00
2018-07-20T04:21:22.835Z,764.00
2018-07-20T04:22:22.817Z,780.00
2018-07-20T04:23:22.773Z,796.00
2018-07-20T04:24:22.698Z,808.00
2018-07-20T04:25:22.646Z,816.00
2018-07-20T04:26:22.601Z,824.00
2018-07-20T04:27:22.549Z,828.00
2018-07-20T04:28:22.533Z,832.00
2018-07-20T04:29:22.457Z,840.00
2018-07-20T04:30:22.410Z,844.00
2018-07-20T04:31:22.360Z,852.00
2018-07-20T04:32:22.315Z,864.00
2018-07-20T04:33:22.310Z,876.00
2018-07-20T04:34:22.222Z,884.00
2018-07-20T04:35:22.170Z,896.00
2018-07-20T04:36:22.144Z,900.00
2018-07-20T04:37:22.091Z,912.00
2018-07-20T04:38:22.061Z,916.00
2018-07-20T04:39:21.981Z,924.00
2018-07-20T04:40:21.936Z,932.00
2018-07-20T04:41:21.920Z,940.00
2018-07-20T04:42:21.840Z,944.00
2018-07-20T04:43:21.793Z,948.00
2018-07-20T04:44:21.745Z,960.00
2018-07-20T04:45:21.702Z,968.00
2018-07-20T04:46:21.690Z,980.00
2018-07-20T04:47:21.605Z,992.00
2018-07-20T04:48:21.558Z,1004.00
2018-07-20T04:49:21.544Z,1012.00
2018-07-20T04:50:21.501Z,1024.00
2018-07-20T04:51:21.415Z,1036.00
2018-07-20T04:52:21.368Z,1044.00
2018-07-20T04:53:21.328Z,1060.00
2018-07-20T04:54:21.279Z,1072.00
2018-07-20T04:55:21.263Z,1080.00
2018-07-20T04:56:21.183Z,1092.00
2018-07-20T04:57:21.134Z,1108.00
2018-07-20T04:58:21.088Z,1124.00
2018-07-20T04:59:21.041Z,1140.00
2018-07-20T05:00:21.035Z,1160.00
2018-07-20T05:01:20.945Z,1184.00
2018-07-20T05:02:20.897Z,1200.00
2018-07-20T05:03:20.852Z,1212.00
2018-07-20T05:04:20.807Z,1224.00
2018-07-20T05:05:20.797Z,1232.00
2018-07-20T05:06:20.765Z,1244.00
2018-07-20T05:07:20.667Z,1256.00
2018-07-20T05:08:20.621Z,1264.00
2018-07-20T05:09:20.571Z,1272.00
2018-07-20T05:10:20.523Z,1284.00
2018-07-20T05:11:20.541Z,1296.00
2018-07-20T05:12:20.469Z,1304.00
2018-07-20T05:13:20.385Z,1320.00
2018-07-20T05:14:20.336Z,1336.00
2018-07-20T05:15:20.324Z,1348.00
2018-07-20T05:16:20.246Z,1364.00
2018-07-20T05:17:20.229Z,1376.00
2018-07-20T05:18:20.150Z,1388.00
2018-07-20T05:19:20.104Z,1412.00
2018-07-20T05:20:20.101Z,1428.00
2018-07-20T05:21:20.010Z,1444.00
2018-07-20T05:22:19.964Z,1464.00
2018-07-20T05:23:19.917Z,1480.00
2018-07-20T05:24:19.906Z,1500.00
2018-07-20T05:25:19.826Z,1516.00
2018-07-20T05:26:19.777Z,1528.00
2018-07-20T05:27:19.731Z,1544.00
2018-07-20T05:28:19.717Z,1564.00
2018-07-20T05:29:19.639Z,1576.00
2018-07-20T05:30:19.588Z,1592.00
2018-07-20T05:31:19.583Z,1600.00
2018-07-20T05:32:19.498Z,1620.00
2018-07-20T05:33:19.450Z,1628.00
2018-07-20T05:34:19.406Z,1640.00
2018-07-20T05:35:19.357Z,1652.00
2018-07-20T05:36:19.346Z,1664.00
2018-07-20T05:37:19.272Z,1680.00
2018-07-20T05:38:19.250Z,1696.00
2018-07-20T05:39:19.177Z,1720.00
2018-07-20T05:40:19.124Z,1744.00
2018-07-20T05:41:19.083Z,1756.00
2018-07-20T05:42:19.067Z,1764.00
2018-07-20T05:43:18.993Z,1776.00
2018-07-20T05:44:18.982Z,1788.00
2018-07-20T05:45:18.901Z,1800.00
2018-07-20T05:46:18.848Z,1808.00
2018-07-20T05:47:18.800Z,1812.00
2018-07-20T05:48:18.754Z,1824.00
2018-07-20T05:49:18.745Z,1824.00
2018-07-20T05:50:18.696Z,1840.00
2018-07-20T05:51:18.617Z,1856.00
2018-07-20T05:52:18.575Z,1868.00
2018-07-20T05:53:18.569Z,1888.00
2018-07-20T05:54:18.480Z,1920.00
2018-07-20T05:55:18.466Z,1948.00
2018-07-20T05:56:18.387Z,1964.00
2018-07-20T05:57:18.342Z,1996.00
2018-07-20T05:58:18.292Z,2028.00
2018-07-20T05:59:18.247Z,2064.00
2018-07-20T06:00:18.234Z,2100.00
2018-07-20T06:01:18.157Z,2132.00
2018-07-20T06:02:18.113Z,2168.00
2018-07-20T06:03:18.063Z,2188.00
2018-07-20T06:04:18.021Z,2228.00
2018-07-20T06:05:18.003Z,2260.00
2018-07-20T06:06:17.930Z,2292.00
2018-07-20T06:07:17.913Z,2320.00
2018-07-20T06:08:17.865Z,2352.00
2018-07-20T06:09:17.788Z,2384.00
2018-07-20T06:10:17.773Z,2420.00
2018-07-20T06:11:17.697Z,2448.00
2018-07-20T06:12:17.655Z,2476.00
2018-07-20T06:13:17.603Z,2504.00
2018-07-20T06:14:17.658Z,2528.00
2018-07-20T06:15:17.538Z,2544.00
2018-07-20T06:16:17.484Z,2560.00
2018-07-20T06:17:17.454Z,2560.00
2018-07-20T06:18:17.382Z,2576.00
2018-07-20T06:19:17.331Z,2608.00
2018-07-20T06:20:17.287Z,2640.00
2018-07-20T06:21:17.267Z,2672.00
2018-07-20T06:22:17.192Z,2712.00
2018-07-20T06:23:17.177Z,2736.00
2018-07-20T06:24:17.109Z,2756.00
2018-07-20T06:25:17.057Z,2772.00
2018-07-20T06:26:17.039Z,2784.00
2018-07-20T06:27:16.964Z,2780.00
2018-07-20T06:28:16.918Z,2768.00
2018-07-20T06:29:16.875Z,2748.00
2018-07-20T06:30:16.828Z,2752.00
2018-07-20T06:31:16.808Z,2772.00
2018-07-20T06:32:16.738Z,2784.00
2018-07-20T06:33:16.692Z,2780.00
2018-07-20T06:34:16.646Z,2768.00
2018-07-20T06:35:16.604Z,2748.00
2018-07-20T06:36:16.594Z,2720.00
2018-07-20T06:37:16.511Z,2700.00
2018-07-20T06:38:16.467Z,2700.00
2018-07-20T06:39:16.419Z,2720.00
2018-07-20T06:40:16.375Z,2712.00
2018-07-20T06:41:16.371Z,2732.00
2018-07-20T06:42:16.285Z,2752.00
2018-07-20T06:43:16.240Z,2776.00
2018-07-20T06:44:16.196Z,2792.00
2018-07-20T06:45:16.151Z,2804.00
2018-07-20T06:46:16.142Z,2820.00
2018-07-20T06:47:16.061Z,2828.00
2018-07-20T06:48:16.053Z,2828.00
2018-07-20T06:49:16.002Z,2820.00
2018-07-20T06:50:15.924Z,2848.00
2018-07-20T06:51:15.879Z,2880.00
2018-07-20T06:52:15.832Z,2920.00
2018-07-20T06:53:15.791Z,2956.00
2018-07-20T06:54:15.791Z,3000.00
2018-07-20T06:55:15.702Z,3016.00
2018-07-20T06:56:15.655Z,3044.00
2018-07-20T06:57:15.610Z,3068.00
2018-07-20T06:58:15.565Z,3100.00
2018-07-20T06:59:15.553Z,3116.00
2018-07-20T07:00:15.477Z,3128.00
2018-07-20T07:01:15.434Z,3160.00
2018-07-20T07:02:15.389Z,3176.00
2018-07-20T07:03:15.341Z,3192.00
2018-07-20T07:04:15.328Z,3216.00
2018-07-20T07:05:15.254Z,3248.00
2018-07-20T07:06:15.213Z,3288.00
2018-07-20T07:07:15.167Z,3332.00
2018-07-20T07:08:15.121Z,3388.00
2018-07-20T07:09:15.110Z,3444.00
2018-07-20T07:10:15.056Z,3496.00
2018-07-20T07:11:14.988Z,3552.00
2018-07-20T07:12:14.943Z,3604.00
2018-07-20T07:13:14.897Z,3668.00
2018-07-20T07:14:14.893Z,3736.00
2018-07-20T07:15:14.875Z,3784.00
2018-07-20T07:16:14.767Z,3848.00
2018-07-20T07:17:14.723Z,3876.00
2018-07-20T07:18:14.679Z,3904.00
2018-07-20T07:19:14.676Z,3924.00
2018-07-20T07:20:14.591Z,3932.00
2018-07-20T07:21:14.544Z,3888.00
2018-07-20T07:22:14.508Z,3936.00
2018-07-20T07:23:14.459Z,3948.00
2018-07-20T07:24:14.457Z,3984.00
2018-07-20T07:25:14.368Z,4004.00
2018-07-20T07:26:14.327Z,4016.00
2018-07-20T07:27:14.288Z,3988.00
2018-07-20T07:28:14.238Z,4040.00
2018-07-20T07:29:14.298Z,4096.00
2018-07-20T07:30:14.149Z,4132.00
2018-07-20T07:31:14.119Z,4152.00
2018-07-20T07:32:14.070Z,4184.00
2018-07-20T07:33:14.023Z,4216.00
2018-07-20T07:34:14.007Z,4264.00
2018-07-20T07:35:13.943Z,4328.00
2018-07-20T07:36:13.894Z,4384.00
2018-07-20T07:37:13.853Z,4476.00
2018-07-20T07:38:13.834Z,4564.00
2018-07-20T07:39:13.760Z,4636.00
2018-07-20T07:40:13.720Z,4684.00
2018-07-20T07:41:13.675Z,4712.00
2018-07-20T07:42:13.668Z,4728.00
2018-07-20T07:43:13.592Z,4760.00
2018-07-20T07:44:13.547Z,4808.00
2018-07-20T07:45:13.505Z,4832.00
2018-07-20T07:46:13.462Z,4856.00
2018-07-20T07:47:13.439Z,4872.00
2018-07-20T07:48:13.408Z,4888.00
2018-07-20T07:49:13.336Z,4916.00
2018-07-20T07:50:13.322Z,4944.00
2018-07-20T07:51:13.245Z,4964.00
2018-07-20T07:52:13.207Z,4980.00
2018-07-20T07:53:13.166Z,4996.00
2018-07-20T07:54:13.151Z,5020.00
2018-07-20T07:55:13.118Z,5060.00
2018-07-20T07:56:13.033Z,5108.00
2018-07-20T07:57:13.005Z,5160.00
2018-07-20T07:58:12.951Z,5196.00
2018-07-20T07:59:12.909Z,5212.00
2018-07-20T08:00:12.898Z,5204.00
2018-07-20T08:01:12.824Z,5188.00
2018-07-20T08:02:12.782Z,5180.00
2018-07-20T08:03:12.800Z,5176.00
2018-07-20T08:04:12.752Z,5168.00
2018-07-20T08:05:12.657Z,5156.00
2018-07-20T08:06:12.613Z,5132.00
2018-07-20T08:07:12.575Z,5116.00
2018-07-20T08:08:12.528Z,5020.00
2018-07-20T08:09:12.531Z,4924.00
2018-07-20T08:10:12.482Z,4820.00
2018-07-20T08:11:12.404Z,4824.00
2018-07-20T08:12:12.363Z,4852.00
2018-07-20T08:13:12.360Z,4920.00
2018-07-20T08:14:12.276Z,5016.00
2018-07-20T08:15:12.241Z,5100.00
2018-07-20T08:16:12.195Z,5192.00
2018-07-20T08:17:12.151Z,5220.00
2018-07-20T08:18:12.173Z,5320.00
2018-07-20T08:19:12.073Z,5420.00
2018-07-20T08:20:12.031Z,5480.00
2018-07-20T08:21:11.989Z,5456.00
2018-07-20T08:22:11.944Z,5552.00
2018-07-20T08:23:11.938Z,5604.00
2018-07-20T08:24:11.866Z,5636.00
2018-07-20T08:25:11.822Z,5680.00
2018-07-20T08:26:11.783Z,5720.00
2018-07-20T08:27:11.745Z,5756.00
2018-07-20T08:28:11.734Z,5772.00
2018-07-20T08:29:11.663Z,5800.00
2018-07-20T08:30:11.672Z,5848.00
2018-07-20T08:31:11.580Z,5936.00
2018-07-20T08:32:11.542Z,5984.00
2018-07-20T08:33:11.503Z,6072.00
2018-07-20T08:34:11.458Z,6104.00
2018-07-20T08:35:11.469Z,6168.00
2018-07-20T08:36:11.378Z,6216.00
2018-07-20T08:37:11.337Z,6296.00
2018-07-20T08:38:11.295Z,6352.00
2018-07-20T08:39:11.261Z,6408.00
2018-07-20T08:40:11.250Z,6412.00
2018-07-20T08:41:11.183Z,6464.00
2018-07-20T08:42:11.138Z,6496.00
2018-07-20T08:43:11.122Z,6480.00
2018-07-20T08:44:11.059Z,6484.00
2018-07-20T08:45:11.022Z,6560.00
2018-07-20T08:46:10.980Z,6588.00
2018-07-20T08:47:10.944Z,6596.00
2018-07-20T08:48:10.939Z,6520.00
2018-07-20T08:49:10.862Z,6448.00
2018-07-20T08:50:10.826Z,6520.00
2018-07-20T08:51:10.781Z,6596.00
2018-07-20T08:52:10.745Z,6572.00
2018-07-20T08:53:10.773Z,6624.00
2018-07-20T08:54:10.760Z,6628.00
2018-07-20T08:55:10.629Z,5676.00
2018-07-20T08:56:10.590Z,6572.00
2018-07-20T08:57:10.555Z,6436.00
2018-07-20T08:58:10.543Z,6332.00
2018-07-20T08:59:10.474Z,6212.00
2018-07-20T09:00:10.435Z,6144.00
2018-07-20T09:01:10.400Z,4684.00
2018-07-20T09:02:10.390Z,4572.00
2018-07-20T09:03:10.334Z,4476.00
2018-07-20T09:04:10.281Z,4404.00
2018-07-20T09:05:10.285Z,4312.00
2018-07-20T09:06:10.207Z,4192.00
2018-07-20T09:07:10.166Z,4104.00
2018-07-20T09:08:10.129Z,4044.00
2018-07-20T09:09:10.093Z,3940.00
2018-07-20T09:10:10.086Z,3852.00
2018-07-20T09:11:10.017Z,3800.00
2018-07-20T09:12:09.975Z,3824.00
2018-07-20T09:13:09.980Z,3844.00
2018-07-20T09:14:09.902Z,3860.00
2018-07-20T09:15:09.862Z,3880.00
2018-07-20T09:16:09.826Z,3992.00
2018-07-20T09:17:09.785Z,4080.00
2018-07-20T09:18:09.776Z,4124.00
2018-07-20T09:19:09.742Z,4112.00
2018-07-20T09:20:09.671Z,4976.00
2018-07-20T09:21:09.661Z,5228.00
2018-07-20T09:22:09.595Z,5336.00
2018-07-20T09:23:09.554Z,5420.00
2018-07-20T09:24:09.518Z,5520.00
2018-07-20T09:25:09.515Z,5564.00
2018-07-20T09:26:09.436Z,5540.00
2018-07-20T09:27:09.400Z,5248.00
2018-07-20T09:28:09.396Z,5060.00
2018-07-20T09:29:09.319Z,4780.00
2018-07-20T09:30:09.317Z,5028.00
2018-07-20T09:31:09.246Z,5284.00
2018-07-20T09:32:09.210Z,5520.00
2018-07-20T09:33:09.198Z,5508.00
2018-07-20T09:34:09.157Z,5440.00
2018-07-20T09:35:09.092Z,5456.00
2018-07-20T09:36:09.055Z,5200.00
2018-07-20T09:37:09.045Z,4972.00
2018-07-20T09:38:08.970Z,4900.00
2018-07-20T09:39:08.934Z,4804.00
2018-07-20T09:40:08.932Z,4820.00
2018-07-20T09:41:08.859Z,4760.00
2018-07-20T09:42:08.817Z,4776.00
2018-07-20T09:43:08.783Z,4768.00
2018-07-20T09:44:08.789Z,4728.00
2018-07-20T09:45:08.704Z,4724.00
2018-07-20T09:46:08.669Z,4736.00
2018-07-20T09:47:08.628Z,4728.00
2018-07-20T09:48:08.589Z,4636.00
2018-07-20T09:49:08.583Z,4636.00
2018-07-20T09:50:08.510Z,4688.00
2018-07-20T09:51:08.501Z,4700.00
2018-07-20T09:52:08.433Z,4764.00
2018-07-20T09:53:08.426Z,4844.00
2018-07-20T09:54:08.358Z,4908.00
2018-07-20T09:55:08.322Z,5004.00
2018-07-20T09:56:08.280Z,5132.00
2018-07-20T09:57:08.248Z,5252.00
2018-07-20T09:58:08.239Z,5288.00
2018-07-20T09:59:08.169Z,5144.00
2018-07-20T10:00:08.128Z,4984.00
2018-07-20T10:01:08.088Z,4916.00
2018-07-20T10:02:08.098Z,4944.00
2018-07-20T10:03:08.012Z,5312.00
2018-07-20T10:04:07.973Z,5212.00
2018-07-20T10:05:08.025Z,5084.00
2018-07-20T10:06:07.899Z,5068.00
2018-07-20T10:07:07.892Z,5008.00
2018-07-20T10:08:07.851Z,5012.00
2018-07-20T10:09:07.782Z,5016.00
2018-07-20T10:10:07.744Z,5016.00
2018-07-20T10:11:07.708Z,4876.00
2018-07-20T10:12:07.667Z,4876.00
2018-07-20T10:13:07.670Z,4868.00
2018-07-20T10:14:07.595Z,4876.00
2018-07-20T10:15:07.557Z,4888.00
2018-07-20T10:16:07.519Z,4864.00
2018-07-20T10:17:07.475Z,4908.00
2018-07-20T10:18:07.470Z,4940.00
2018-07-20T10:19:07.442Z,4956.00
2018-07-20T10:20:07.404Z,5020.00
2018-07-20T10:21:07.324Z,5092.00
2018-07-20T10:22:07.285Z,5252.00
2018-07-20T10:23:07.301Z,5372.00
2018-07-20T10:24:07.240Z,5424.00
2018-07-20T10:25:07.173Z,5284.00
2018-07-20T10:26:07.163Z,5484.00
2018-07-20T10:27:07.091Z,5424.00
2018-07-20T10:28:07.059Z,5648.00
2018-07-20T10:29:07.020Z,5464.00
2018-07-20T10:30:06.983Z,5588.00
2018-07-20T10:31:06.987Z,5512.00
2018-07-20T10:32:06.903Z,5608.00
2018-07-20T10:33:06.869Z,5148.00
2018-07-20T10:34:06.826Z,5072.00
2018-07-20T10:35:06.790Z,5252.00
2018-07-20T10:36:06.784Z,5308.00
2018-07-20T10:37:06.714Z,4624.00
2018-07-20T10:38:06.676Z,4604.00
2018-07-20T10:39:06.637Z,4612.00
2018-07-20T10:40:06.639Z,5068.00
2018-07-20T10:41:06.576Z,5352.00
2018-07-20T10:42:06.524Z,5268.00
2018-07-20T10:43:06.503Z,5264.00
2018-07-20T10:44:06.450Z,5384.00
2018-07-20T10:45:06.443Z,5224.00
2018-07-20T10:46:06.370Z,5424.00
2018-07-20T10:47:06.334Z,5440.00
2018-07-20T10:48:06.299Z,5412.00
2018-07-20T10:49:06.294Z,5312.00
2018-07-20T10:50:06.224Z,5248.00
2018-07-20T10:51:06.194Z,5312.00
2018-07-20T10:52:06.166Z,5296.00
2018-07-20T10:53:06.111Z,5360.00
2018-07-20T10:54:06.107Z,5264.00
2018-07-20T10:55:06.036Z,5200.00
2018-07-20T10:56:05.999Z,5196.00
2018-07-20T10:57:05.966Z,5232.00
2018-07-20T10:58:05.949Z,5324.00
2018-07-20T10:59:05.904Z,5196.00
2018-07-20T11:00:05.848Z,5196.00
2018-07-20T11:01:05.812Z,5364.00
2018-07-20T11:02:05.819Z,5220.00
2018-07-20T11:03:05.736Z,5164.00
2018-07-20T11:04:05.698Z,5224.00
2018-07-20T11:05:05.659Z,5100.00
2018-07-20T11:06:05.627Z,5152.00
2018-07-20T11:07:05.633Z,5104.00
2018-07-20T11:08:05.601Z,5000.00
2018-07-20T11:09:05.514Z,4988.00
2018-07-20T11:10:05.486Z,4916.00
2018-07-20T11:11:05.440Z,4924.00
2018-07-20T11:12:05.441Z,4908.00
2018-07-20T11:13:05.360Z,4848.00
2018-07-20T11:14:05.328Z,4776.00
2018-07-20T11:15:05.286Z,4776.00
2018-07-20T11:16:05.250Z,4676.00
2018-07-20T11:17:05.242Z,4604.00
2018-07-20T11:18:05.176Z,4524.00
2018-07-20T11:19:05.135Z,4612.00
2018-07-20T11:20:05.099Z,4764.00
2018-07-20T11:21:05.058Z,4648.00
2018-07-20T11:22:05.055Z,4676.00
2018-07-20T11:23:04.981Z,4632.00
2018-07-20T11:24:04.947Z,4748.00
2018-07-20T11:25:04.919Z,5136.00
2018-07-20T11:26:04.870Z,5436.00
2018-07-20T11:27:04.862Z,5728.00
2018-07-20T11:28:04.822Z,5572.00
2018-07-20T11:29:04.759Z,5900.00
2018-07-20T11:30:04.741Z,6032.00
2018-07-20T11:31:04.689Z,6268.00
2018-07-20T11:32:04.674Z,6120.00
2018-07-20T11:33:04.607Z,6256.00
2018-07-20T11:34:04.567Z,6128.00
2018-07-20T11:35:04.620Z,6040.00
2018-07-20T11:36:04.497Z,6060.00
2018-07-20T11:37:04.488Z,5956.00
2018-07-20T11:38:05.098Z,5436.00
2018-07-20T11:39:04.385Z,5560.00
2018-07-20T11:40:04.375Z,5908.00
2018-07-20T11:41:04.305Z,5712.00
2018-07-20T11:42:04.283Z,6056.00
2018-07-20T11:43:04.228Z,6188.00
2018-07-20T11:44:04.194Z,6280.00
2018-07-20T11:45:04.191Z,6252.00
2018-07-20T11:46:04.115Z,6220.00
2018-07-20T11:47:04.077Z,6188.00
2018-07-20T11:48:04.044Z,6184.00
2018-07-20T11:49:04.047Z,6180.00
2018-07-20T11:50:03.970Z,6128.00
2018-07-20T11:51:03.934Z,6060.00
2018-07-20T11:52:03.895Z,6036.00
2018-07-20T11:53:03.856Z,5372.00
2018-07-20T11:54:03.852Z,5884.00
2018-07-20T11:55:03.781Z,5628.00
2018-07-20T11:56:03.795Z,5720.00
2018-07-20T11:57:03.742Z,5632.00
2018-07-20T11:58:03.674Z,6084.00
2018-07-20T11:59:03.634Z,6020.00
2018-07-20T12:00:03.595Z,6064.00
2018-07-20T12:01:03.591Z,5820.00
2018-07-20T12:02:03.523Z,5784.00
2018-07-20T12:03:03.490Z,5896.00
2018-07-20T12:04:03.449Z,5796.00
2018-07-20T12:05:03.410Z,5548.00
2018-07-20T12:06:03.427Z,5444.00
2018-07-20T12:07:03.340Z,5464.00
2018-07-20T12:08:03.301Z,5400.00
2018-07-20T12:09:03.264Z,5568.00
2018-07-20T12:10:03.232Z,5476.00
2018-07-20T12:11:03.228Z,5396.00
2018-07-20T12:12:03.160Z,5220.00
2018-07-20T12:13:03.153Z,5284.00
2018-07-20T12:14:03.099Z,5576.00
2018-07-20T12:15:03.049Z,5444.00
2018-07-20T12:16:03.014Z,5212.00
2018-07-20T12:17:03.003Z,5336.00
2018-07-20T12:18:02.942Z,5096.00
2018-07-20T12:19:02.999Z,5072.00
2018-07-20T12:20:02.866Z,4812.00
2018-07-20T12:21:02.831Z,4892.00
2018-07-20T12:22:02.800Z,5168.00
2018-07-20T12:23:02.763Z,5056.00
2018-07-20T12:24:02.772Z,4968.00
2018-07-20T12:25:02.690Z,4900.00
2018-07-20T12:26:02.716Z,4772.00